Time;durP1;ratioP1;P1;durP2;ratioP2;P2;SDS_P1;SDS_P2;PMS_P1;PMS_P2;Temp;Humidity;BMP_temperature;BMP_pressure;BME280_temperature;BME280_humidity;BME280_pressure;Samples;Min_cycle;Max_cycle;Signal;HPM_P1;HPM_P2
2024/01/09 00:00:40;;;;;;;14.93;5.90;;;-5.30;94.10;;;;;;5003571;28;20257;-79
2024/01/09 00:03:07;;;;;;;13.13;5.35;;;-5.30;94.60;;;;;;5003449;28;20210;-78
2024/01/09 00:05:34;;;;;;;9.77;5.70;;;-5.30;95.30;;;;;;5034154;28;20251;-79
2024/01/09 00:08:01;;;;;;;9.90;5.65;;;-5.40;94.70;;;;;;5009019;28;20207;-79
2024/01/09 00:10:29;;;;;;;6.45;4.72;;;-5.40;95.50;;;;;;5006378;28;20224;-80
2024/01/09 00:12:57;;;;;;;8.57;5.85;;;-5.30;95.40;;;;;;5004123;28;20644;-78
2024/01/09 00:15:24;;;;;;;8.38;5.80;;;-5.30;95.30;;;;;;5013162;28;20633;-82
2024/01/09 00:17:51;;;;;;;9.05;4.85;;;-5.40;94.80;;;;;;5003943;28;20652;-82
2024/01/09 00:20:19;;;;;;;9.90;6.10;;;-5.40;95.30;;;;;;5040289;28;20248;-82
2024/01/09 00:22:46;;;;;;;5.18;4.65;;;-5.40;94.80;;;;;;4999210;28;20200;-77
2024/01/09 00:25:15;;;;;;;8.63;5.70;;;-5.40;94.70;;;;;;5003925;28;20257;-79
2024/01/09 00:27:44;;;;;;;8.15;5.35;;;-5.40;94.70;;;;;;4994404;28;20222;-80
2024/01/09 00:30:12;;;;;;;8.70;4.97;;;-5.40;94.50;;;;;;5007399;28;20620;-79
2024/01/09 00:32:39;;;;;;;8.23;5.63;;;-5.50;95.60;;;;;;5000129;28;20660;-80
2024/01/09 00:35:07;;;;;;;10.15;4.10;;;-5.50;95.20;;;;;;5046159;28;20212;-79
2024/01/09 00:37:34;;;;;;;5.80;4.32;;;-5.50;95.00;;;;;;5006954;28;20200;-79
2024/01/09 00:40:01;;;;;;;16.00;6.82;;;-5.50;95.10;;;;;;5031394;28;20204;-82
2024/01/09 00:42:28;;;;;;;10.65;5.97;;;-5.50;95.00;;;;;;5014692;28;20655;-82
2024/01/09 00:44:57;;;;;;;9.50;4.93;;;-5.60;95.50;;;;;;5005061;28;20207;-80
2024/01/09 00:47:24;;;;;;;9.02;6.18;;;-5.60;95.90;;;;;;5004485;28;20212;-77
2024/01/09 00:49:51;;;;;;;12.50;5.82;;;-5.60;96.80;;;;;;5005517;28;20730;-76
2024/01/09 00:52:18;;;;;;;13.38;4.55;;;-5.60;97.30;;;;;;5015782;28;20343;-79
2024/01/09 00:54:45;;;;;;;7.03;4.78;;;-5.60;97.70;;;;;;5009494;28;20200;-82
2024/01/09 00:57:13;;;;;;;6.70;5.78;;;-5.60;98.30;;;;;;5004642;28;20358;-79
2024/01/09 00:59:40;;;;;;;10.30;6.55;;;-5.70;97.10;;;;;;5030969;28;20259;-77
2024/01/09 01:02:08;;;;;;;9.40;5.53;;;-5.70;97.40;;;;;;5010948;28;20564;-83
2024/01/09 01:04:38;;;;;;;12.38;6.63;;;-5.70;97.50;;;;;;5030479;28;20587;-78
2024/01/09 01:07:05;;;;;;;10.80;6.00;;;-5.70;96.00;;;;;;5008247;28;20208;-77
2024/01/09 01:09:32;;;;;;;9.18;4.32;;;-5.70;96.00;;;;;;5010120;28;20224;-77
2024/01/09 01:12:06;;;;;;;7.75;5.93;;;-5.80;96.20;;;;;;4998875;28;20203;-82
2024/01/09 01:14:33;;;;;;;9.07;4.07;;;-5.80;95.90;;;;;;5005430;28;20207;-77
2024/01/09 01:17:00;;;;;;;10.73;6.35;;;-5.80;95.70;;;;;;5048234;28;20255;-80
2024/01/09 01:19:28;;;;;;;8.20;5.80;;;-5.80;96.40;;;;;;5009612;28;20259;-80
2024/01/09 01:21:55;;;;;;;10.32;5.45;;;-5.80;95.90;;;;;;5049414;28;20285;-76
2024/01/09 01:24:22;;;;;;;12.95;6.50;;;-5.80;96.40;;;;;;5025659;28;20227;-81
2024/01/09 01:26:51;;;;;;;9.98;7.00;;;-5.80;96.50;;;;;;5040000;28;20612;-81
2024/01/09 01:29:19;;;;;;;8.55;4.95;;;-5.90;96.70;;;;;;5013170;28;20227;-85
2024/01/09 01:31:46;;;;;;;9.52;6.75;;;-5.90;96.20;;;;;;5050406;28;20189;-86
2024/01/09 01:34:16;;;;;;;9.95;6.03;;;-5.90;96.30;;;;;;5024160;28;20208;-81
2024/01/09 01:36:54;;;;;;;9.25;6.95;;;-5.90;96.10;;;;;;5040264;28;20284;-84
2024/01/09 01:39:21;;;;;;;12.50;5.57;;;-5.90;96.00;;;;;;5027525;28;20678;-79
2024/01/09 01:41:48;;;;;;;11.35;7.47;;;-5.90;97.10;;;;;;5040360;28;20196;-84
2024/01/09 01:44:18;;;;;;;6.93;5.90;;;-6.00;96.60;;;;;;5016462;28;20294;-82
2024/01/09 01:46:46;;;;;;;13.02;7.22;;;-6.00;96.90;;;;;;5031612;28;20204;-80
2024/01/09 01:49:14;;;;;;;12.73;7.45;;;-6.00;96.90;;;;;;5014026;28;20231;-80
2024/01/09 01:51:42;;;;;;;10.25;5.07;;;-6.00;97.30;;;;;;5026536;28;20200;-81
2024/01/09 01:54:11;;;;;;;12.15;5.13;;;-6.00;97.20;;;;;;5008321;28;20211;-78
2024/01/09 01:56:39;;;;;;;9.23;7.25;;;-6.00;97.50;;;;;;5006598;28;20228;-79
2024/01/09 01:59:07;;;;;;;14.15;6.95;;;-6.10;97.20;;;;;;5011284;28;20208;-78
2024/01/09 02:01:34;;;;;;;14.45;7.32;;;-6.20;97.40;;;;;;5011475;28;20469;-78
2024/01/09 02:04:01;;;;;;;9.60;7.25;;;-6.20;98.30;;;;;;5022548;28;20208;-76
2024/01/09 02:06:29;;;;;;;13.23;7.03;;;-6.20;98.30;;;;;;5015541;28;20208;-77
2024/01/09 02:08:55;;;;;;;11.45;5.95;;;-6.20;98.50;;;;;;4993464;28;20204;-79
2024/01/09 02:11:23;;;;;;;6.13;5.10;;;-6.30;99.10;;;;;;5015825;28;20238;-78
2024/01/09 02:13:50;;;;;;;10.57;5.90;;;-6.30;99.30;;;;;;5006978;28;20207;-79
2024/01/09 02:16:17;;;;;;;10.98;6.20;;;-6.40;99.90;;;;;;5009314;28;20289;-79
2024/01/09 02:18:44;;;;;;;12.35;6.15;;;-6.40;99.90;;;;;;5012832;28;20196;-78
2024/01/09 02:21:11;;;;;;;14.77;8.38;;;-6.50;99.90;;;;;;5010810;28;20762;-77
2024/01/09 02:23:38;;;;;;;8.38;5.88;;;-6.50;99.90;;;;;;5005343;28;20231;-80
2024/01/09 02:26:06;;;;;;;7.75;5.70;;;-6.50;99.90;;;;;;5049048;28;20210;-77
2024/01/09 02:28:42;;;;;;;11.13;6.22;;;-6.60;99.90;;;;;;4997947;28;20561;-78
2024/01/09 02:31:10;;;;;;;8.18;4.28;;;-6.60;99.90;;;;;;5034026;28;20233;-77
2024/01/09 02:33:39;;;;;;;5.57;3.80;;;-6.60;99.90;;;;;;5004091;28;20251;-79
2024/01/09 02:36:06;;;;;;;15.52;6.82;;;-6.70;99.90;;;;;;5011127;28;20290;-79
2024/01/09 02:38:34;;;;;;;8.45;4.57;;;-6.70;99.90;;;;;;5003942;28;20203;-80
2024/01/09 02:41:01;;;;;;;9.80;7.63;;;-6.70;99.90;;;;;;5025333;28;21038;-79
2024/01/09 02:43:28;;;;;;;9.70;5.40;;;-6.70;99.90;;;;;;5025137;28;20351;-77
2024/01/09 02:45:55;;;;;;;11.00;6.38;;;-6.80;99.90;;;;;;5028714;28;20211;-81
2024/01/09 02:48:23;;;;;;;10.25;5.95;;;-6.80;99.90;;;;;;5027109;28;20719;-78
2024/01/09 02:50:50;;;;;;;8.80;5.15;;;-6.90;99.90;;;;;;5050092;28;20616;-76
2024/01/09 02:53:17;;;;;;;10.32;6.75;;;-6.90;99.90;;;;;;5037355;28;20212;-78
2024/01/09 02:55:44;;;;;;;7.05;4.50;;;-6.90;99.90;;;;;;5049168;28;20204;-80
2024/01/09 02:58:11;;;;;;;10.32;6.28;;;-7.00;99.90;;;;;;5038524;28;20869;-77
2024/01/09 03:00:37;;;;;;;12.23;6.88;;;-7.00;99.90;;;;;;5027576;28;20746;-77
2024/01/09 03:03:05;;;;;;;12.75;6.35;;;-7.10;99.90;;;;;;5017929;28;20203;-79
2024/01/09 03:05:33;;;;;;;9.60;6.47;;;-7.00;99.90;;;;;;5024525;28;20239;-77
2024/01/09 03:08:00;;;;;;;8.77;4.10;;;-7.10;99.90;;;;;;5039276;28;20261;-77
2024/01/09 03:10:27;;;;;;;11.55;6.20;;;-7.10;99.90;;;;;;5002675;28;20291;-79
2024/01/09 03:12:59;;;;;;;15.48;5.47;;;-7.00;99.90;;;;;;5007626;28;20280;-83
2024/01/09 03:15:26;;;;;;;12.18;5.88;;;-7.00;99.90;;;;;;5006826;28;20243;-78
2024/01/09 03:17:53;;;;;;;11.05;7.00;;;-7.10;99.90;;;;;;5021815;28;20727;-77
2024/01/09 03:20:20;;;;;;;9.23;6.03;;;-7.10;99.90;;;;;;5008356;28;20209;-76
2024/01/09 03:22:48;;;;;;;12.02;6.90;;;-7.20;99.90;;;;;;5005130;28;20231;-77
2024/01/09 03:25:15;;;;;;;13.50;5.82;;;-7.20;99.90;;;;;;5003706;28;20235;-79
2024/01/09 03:27:43;;;;;;;22.45;8.48;;;-7.20;99.90;;;;;;5030318;28;20647;-77
2024/01/09 03:30:11;;;;;;;18.33;10.15;;;-7.20;99.90;;;;;;5006864;28;20459;-77
2024/01/09 03:32:38;;;;;;;19.58;8.85;;;-7.20;99.90;;;;;;5005705;28;20637;-78
2024/01/09 03:35:05;;;;;;;16.77;7.03;;;-7.20;99.90;;;;;;5006092;28;20211;-76
2024/01/09 03:37:32;;;;;;;10.63;8.18;;;-7.30;99.90;;;;;;5004393;28;20319;-75
2024/01/09 03:40:00;;;;;;;7.40;5.80;;;-7.30;99.90;;;;;;5010270;28;20279;-79
2024/01/09 03:42:27;;;;;;;11.38;7.75;;;-7.30;99.90;;;;;;5007775;28;20666;-78
2024/01/09 03:44:54;;;;;;;9.50;6.10;;;-7.30;99.90;;;;;;5007949;28;20291;-79
2024/01/09 03:47:21;;;;;;;10.25;7.22;;;-7.30;99.90;;;;;;5019793;28;20235;-81
2024/01/09 03:49:48;;;;;;;13.00;6.63;;;-7.30;99.90;;;;;;5019587;28;20215;-78
2024/01/09 03:52:15;;;;;;;12.93;8.15;;;-7.30;99.90;;;;;;5011069;28;20256;-79
2024/01/09 03:54:42;;;;;;;10.75;8.05;;;-7.30;99.90;;;;;;5004700;28;20245;-78
2024/01/09 03:57:10;;;;;;;12.93;7.35;;;-7.40;99.90;;;;;;5011098;28;20262;-80
2024/01/09 03:59:37;;;;;;;12.80;8.25;;;-7.40;99.90;;;;;;5011064;28;20900;-78
2024/01/09 04:02:04;;;;;;;9.68;5.28;;;-7.40;99.90;;;;;;5007459;28;20202;-78
2024/01/09 04:04:32;;;;;;;9.20;4.68;;;-7.40;99.90;;;;;;5031012;28;20783;-76
2024/01/09 04:06:59;;;;;;;16.42;6.90;;;-7.40;99.90;;;;;;5014991;28;20206;-78
2024/01/09 04:09:26;;;;;;;15.25;8.23;;;-7.40;99.90;;;;;;5026881;28;20294;-76
2024/01/09 04:11:53;;;;;;;13.18;8.55;;;-7.40;99.90;;;;;;5009893;28;20213;-76
2024/01/09 04:14:22;;;;;;;8.93;6.72;;;-7.40;99.90;;;;;;5055535;28;20210;-78
2024/01/09 04:16:49;;;;;;;9.43;7.05;;;-7.50;99.90;;;;;;5036634;28;20292;-75
2024/01/09 04:19:16;;;;;;;14.55;7.10;;;-7.50;99.90;;;;;;5012931;28;20234;-78
2024/01/09 04:21:43;;;;;;;8.95;6.47;;;-7.50;99.90;;;;;;5004175;28;20672;-77
2024/01/09 04:24:10;;;;;;;13.25;6.07;;;-7.50;99.90;;;;;;5012737;28;20260;-78
2024/01/09 04:26:37;;;;;;;13.00;5.63;;;-7.50;99.90;;;;;;5012383;28;20291;-80
2024/01/09 04:29:04;;;;;;;13.05;5.80;;;-7.50;99.90;;;;;;5020516;28;20275;-78
2024/01/09 04:31:33;;;;;;;10.57;5.40;;;-7.60;99.90;;;;;;5002645;28;20850;-76
2024/01/09 04:33:59;;;;;;;26.25;9.45;;;-7.60;99.90;;;;;;5023459;28;20216;-76
2024/01/09 04:36:26;;;;;;;13.25;7.30;;;-7.60;99.90;;;;;;5001318;28;20267;-76
2024/01/09 04:38:54;;;;;;;17.88;9.02;;;-7.50;99.90;;;;;;5004258;28;20215;-76
2024/01/09 04:41:21;;;;;;;11.93;5.53;;;-7.50;99.90;;;;;;5015306;28;20331;-76
2024/01/09 04:43:48;;;;;;;13.68;8.85;;;-7.60;99.90;;;;;;5002317;28;20200;-78
2024/01/09 04:46:15;;;;;;;17.27;6.38;;;-7.60;99.90;;;;;;5057810;28;20205;-76
2024/01/09 04:48:43;;;;;;;9.88;6.40;;;-7.60;99.90;;;;;;5059018;28;20210;-79
2024/01/09 04:51:10;;;;;;;13.07;6.75;;;-7.60;99.90;;;;;;5022415;28;20251;-76
2024/01/09 04:53:37;;;;;;;14.05;7.35;;;-7.60;99.90;;;;;;5050680;28;20226;-76
2024/01/09 04:56:05;;;;;;;10.13;5.20;;;-7.70;99.90;;;;;;5024363;28;20202;-77
2024/01/09 04:58:32;;;;;;;10.02;5.28;;;-7.70;99.90;;;;;;5045123;28;20226;-77
2024/01/09 05:00:59;;;;;;;14.63;7.45;;;-7.70;99.90;;;;;;5060277;28;20268;-78
2024/01/09 05:03:25;;;;;;;10.10;5.38;;;-7.70;99.90;;;;;;5023871;28;20715;-77
2024/01/09 05:05:54;;;;;;;9.10;6.50;;;-7.80;99.90;;;;;;5017520;28;20387;-76
2024/01/09 05:08:21;;;;;;;9.23;5.65;;;-7.70;99.90;;;;;;5010106;28;20878;-76
2024/01/09 05:10:48;;;;;;;6.38;4.68;;;-7.70;99.90;;;;;;5054700;28;20258;-76
2024/01/09 05:13:15;;;;;;;18.60;8.52;;;-7.80;99.90;;;;;;5065535;28;20199;-75
2024/01/09 05:15:42;;;;;;;12.23;7.40;;;-7.80;99.90;;;;;;5041539;28;20257;-77
2024/01/09 05:18:09;;;;;;;16.80;10.07;;;-7.80;99.90;;;;;;5037278;28;20257;-76
2024/01/09 05:20:36;;;;;;;10.98;5.05;;;-7.80;99.90;;;;;;5033926;28;20246;-77
2024/01/09 05:23:04;;;;;;;11.07;8.82;;;-7.80;99.90;;;;;;5010886;28;20206;-77
2024/01/09 05:25:31;;;;;;;8.20;6.30;;;-7.80;99.90;;;;;;5009426;28;20206;-76
2024/01/09 05:27:58;;;;;;;10.55;4.35;;;-7.80;99.90;;;;;;5017094;28;20259;-80
2024/01/09 05:30:25;;;;;;;15.00;7.85;;;-7.80;99.90;;;;;;5005655;28;20291;-77
2024/01/09 05:32:53;;;;;;;13.45;6.00;;;-7.80;99.90;;;;;;5015206;28;20224;-77
2024/01/09 05:35:19;;;;;;;9.60;7.25;;;-7.80;99.90;;;;;;5020143;28;20212;-77
2024/01/09 05:37:46;;;;;;;15.23;9.13;;;-7.80;99.90;;;;;;5011274;28;20210;-78
2024/01/09 05:40:17;;;;;;;11.93;6.95;;;-7.80;99.90;;;;;;5059430;28;20281;-76
2024/01/09 05:42:44;;;;;;;7.95;4.80;;;-7.80;99.90;;;;;;5005656;28;20255;-74
2024/01/09 05:45:11;;;;;;;7.90;5.05;;;-7.80;99.90;;;;;;4994063;28;20294;-76
2024/01/09 05:47:38;;;;;;;8.35;4.47;;;-7.80;99.90;;;;;;5011159;28;20200;-76
2024/01/09 05:50:07;;;;;;;10.38;7.60;;;-7.80;99.90;;;;;;5010574;28;20201;-77
2024/01/09 05:52:36;;;;;;;16.40;7.30;;;-7.80;99.90;;;;;;5002684;28;20228;-77
2024/01/09 05:55:03;;;;;;;10.40;6.30;;;-7.80;99.90;;;;;;5001997;28;20331;-77
2024/01/09 05:57:32;;;;;;;16.17;8.13;;;-7.80;99.90;;;;;;5002125;28;20250;-78
2024/01/09 05:59:58;;;;;;;16.45;10.30;;;-7.90;99.90;;;;;;5015189;28;20249;-79
2024/01/09 06:02:26;;;;;;;16.55;9.18;;;-7.90;99.90;;;;;;5007366;28;20561;-76
2024/01/09 06:04:53;;;;;;;9.07;6.32;;;-7.90;99.90;;;;;;5033630;28;20206;-77
2024/01/09 06:07:21;;;;;;;15.63;9.18;;;-7.90;99.90;;;;;;5013284;28;20206;-78
2024/01/09 06:09:48;;;;;;;9.63;6.07;;;-7.90;99.90;;;;;;5008366;28;20225;-77
2024/01/09 06:12:15;;;;;;;13.63;5.47;;;-7.90;99.90;;;;;;5011542;28;20252;-79
2024/01/09 06:14:43;;;;;;;22.17;10.60;;;-7.90;99.90;;;;;;5021233;28;20611;-77
2024/01/09 06:17:10;;;;;;;19.02;8.02;;;-8.00;99.90;;;;;;5009899;28;20246;-77
2024/01/09 06:19:37;;;;;;;13.60;8.80;;;-8.00;99.90;;;;;;5013535;28;20210;-80
2024/01/09 06:22:04;;;;;;;13.00;8.80;;;-8.00;99.90;;;;;;5004118;28;20714;-82
2024/01/09 06:24:31;;;;;;;10.10;6.43;;;-8.00;99.90;;;;;;5007798;28;20266;-76
2024/01/09 06:26:58;;;;;;;10.85;6.88;;;-8.00;99.90;;;;;;5043814;28;20203;-77
2024/01/09 06:29:25;;;;;;;13.23;6.82;;;-8.00;99.90;;;;;;4995382;28;20854;-77
2024/01/09 06:31:53;;;;;;;14.85;7.68;;;-8.00;99.90;;;;;;5027469;28;20311;-76
2024/01/09 06:34:20;;;;;;;9.63;5.55;;;-8.00;99.90;;;;;;5036529;28;20209;-76
2024/01/09 06:36:47;;;;;;;12.38;7.90;;;-8.10;99.90;;;;;;5040511;28;20209;-78
2024/01/09 06:39:14;;;;;;;14.40;9.88;;;-8.10;99.90;;;;;;5008600;28;20210;-78
2024/01/09 06:41:42;;;;;;;13.38;5.82;;;-8.00;99.90;;;;;;5002985;28;20202;-77
2024/01/09 06:44:09;;;;;;;12.82;7.30;;;-8.00;99.90;;;;;;5018422;28;20210;-73
2024/01/09 06:46:36;;;;;;;14.77;7.38;;;-8.00;99.90;;;;;;5005138;28;20194;-77
2024/01/09 06:49:05;;;;;;;11.23;4.80;;;-8.00;99.90;;;;;;5009327;28;20223;-78
2024/01/09 06:51:32;;;;;;;10.73;7.32;;;-8.00;99.90;;;;;;5000810;28;20233;-78
2024/01/09 06:53:59;;;;;;;8.30;5.43;;;-8.00;99.90;;;;;;5007450;28;20202;-77
2024/01/09 06:56:26;;;;;;;11.13;6.57;;;-8.00;99.90;;;;;;5016441;28;20262;-79
2024/01/09 06:58:53;;;;;;;9.75;7.65;;;-8.00;99.90;;;;;;5003460;28;20202;-78
2024/01/09 07:01:20;;;;;;;13.75;7.68;;;-8.00;99.90;;;;;;5011703;28;20678;-80
2024/01/09 07:03:47;;;;;;;13.52;8.18;;;-8.00;99.90;;;;;;5010336;28;20226;-78
2024/01/09 07:06:15;;;;;;;10.77;7.00;;;-8.00;99.90;;;;;;5025484;28;20294;-80
2024/01/09 07:08:42;;;;;;;12.07;6.60;;;-8.00;99.50;;;;;;5011516;28;20596;-76
2024/01/09 07:11:10;;;;;;;9.90;4.97;;;-7.90;99.60;;;;;;5014884;28;20226;-76
2024/01/09 07:13:36;;;;;;;12.00;5.35;;;-7.90;99.90;;;;;;4998984;28;20226;-77
2024/01/09 07:16:04;;;;;;;11.48;6.05;;;-7.90;99.70;;;;;;5020598;28;20199;-75
2024/01/09 07:18:31;;;;;;;9.30;4.47;;;-7.80;99.00;;;;;;5003953;28;20783;-76
2024/01/09 07:20:58;;;;;;;8.15;5.47;;;-7.80;98.90;;;;;;5004318;28;20211;-76
2024/01/09 07:23:27;;;;;;;4.57;3.17;;;-7.80;99.00;;;;;;5002637;28;20205;-78
2024/01/09 07:25:55;;;;;;;10.07;5.45;;;-7.80;98.50;;;;;;5013645;28;20209;-76
2024/01/09 07:28:22;;;;;;;10.95;5.82;;;-7.80;98.80;;;;;;5010100;28;20211;-78
2024/01/09 07:30:51;;;;;;;9.85;5.68;;;-7.80;99.00;;;;;;5000671;28;20293;-77
2024/01/09 07:33:18;;;;;;;8.68;6.35;;;-7.70;98.70;;;;;;5004561;28;20290;-78
2024/01/09 07:35:45;;;;;;;7.93;6.45;;;-7.70;98.70;;;;;;5012441;28;20282;-77
2024/01/09 07:38:13;;;;;;;10.73;7.30;;;-7.60;98.50;;;;;;5009172;28;20203;-77
2024/01/09 07:40:41;;;;;;;14.73;8.43;;;-7.60;97.70;;;;;;5031796;28;20246;-76
2024/01/09 07:43:08;;;;;;;12.23;6.65;;;-7.50;97.90;;;;;;5004584;28;20287;-79
2024/01/09 07:45:35;;;;;;;9.35;5.72;;;-7.60;97.70;;;;;;5001393;28;20206;-78
2024/01/09 07:48:03;;;;;;;10.25;5.90;;;-7.50;97.70;;;;;;5017414;28;20205;-78
2024/01/09 07:50:30;;;;;;;9.73;6.65;;;-7.40;97.60;;;;;;5010130;28;20349;-79
2024/01/09 07:52:57;;;;;;;9.85;6.63;;;-7.40;97.50;;;;;;5035514;28;20234;-78
2024/01/09 07:55:24;;;;;;;6.95;4.65;;;-7.40;97.50;;;;;;5032904;28;20262;-79
2024/01/09 07:57:53;;;;;;;12.38;7.55;;;-7.40;97.40;;;;;;5006261;28;20668;-78
2024/01/09 08:00:20;;;;;;;20.00;6.80;;;-7.30;97.80;;;;;;5033633;28;20286;-79
2024/01/09 08:02:47;;;;;;;7.47;4.50;;;-7.30;97.20;;;;;;5018635;28;20210;-78
2024/01/09 08:05:14;;;;;;;10.20;5.93;;;-7.20;97.60;;;;;;5029893;28;20269;-77
2024/01/09 08:07:41;;;;;;;8.52;5.55;;;-7.20;96.80;;;;;;5054654;28;20258;-78
2024/01/09 08:10:09;;;;;;;8.63;5.95;;;-7.20;96.70;;;;;;5029356;28;20200;-78
2024/01/09 08:12:36;;;;;;;6.15;3.05;;;-7.10;96.80;;;;;;5068813;28;20231;-78
2024/01/09 08:15:05;;;;;;;10.63;6.30;;;-7.10;96.10;;;;;;5061266;28;20277;-78
2024/01/09 08:17:31;;;;;;;6.03;3.67;;;-7.10;96.20;;;;;;5071740;28;20862;-77
2024/01/09 08:19:58;;;;;;;12.25;7.50;;;-7.10;96.00;;;;;;5014441;28;20698;-78
2024/01/09 08:22:25;;;;;;;13.05;5.85;;;-7.00;96.00;;;;;;5009219;28;20221;-78
2024/01/09 08:24:52;;;;;;;8.70;6.32;;;-7.00;96.20;;;;;;5033689;28;20241;-80
2024/01/09 08:27:19;;;;;;;11.52;5.35;;;-6.90;96.00;;;;;;5090518;28;20203;-77
2024/01/09 08:29:47;;;;;;;10.07;4.10;;;-7.00;95.50;;;;;;5018982;28;20204;-77
2024/01/09 08:32:18;;;;;;;10.18;6.90;;;-6.90;95.70;;;;;;5062201;28;20571;-77
2024/01/09 08:34:45;;;;;;;13.40;6.13;;;-6.90;95.90;;;;;;5029073;28;20239;-76
2024/01/09 08:37:12;;;;;;;11.25;5.15;;;-6.90;95.90;;;;;;5057772;28;20195;-77
2024/01/09 08:39:39;;;;;;;12.63;7.10;;;-6.80;95.80;;;;;;4993344;28;20286;-77
2024/01/09 08:42:06;;;;;;;15.40;4.82;;;-6.70;96.30;;;;;;5005497;28;20679;-75
2024/01/09 08:44:33;;;;;;;11.75;4.07;;;-6.70;95.80;;;;;;5014790;28;20290;-77
2024/01/09 08:47:00;;;;;;;6.70;4.50;;;-6.70;95.40;;;;;;5013031;28;20211;-77
2024/01/09 08:49:28;;;;;;;19.95;8.20;;;-6.60;95.20;;;;;;5055880;28;20207;-77
2024/01/09 08:51:55;;;;;;;8.68;4.95;;;-6.50;94.70;;;;;;5003355;28;20287;-77
2024/01/09 08:54:22;;;;;;;9.18;5.70;;;-6.50;94.10;;;;;;5031959;28;20202;-77
2024/01/09 08:56:50;;;;;;;8.43;5.53;;;-6.50;94.30;;;;;;5014046;28;20245;-76
2024/01/09 08:59:17;;;;;;;14.27;6.70;;;-6.50;94.80;;;;;;5020583;28;20206;-77
2024/01/09 09:01:44;;;;;;;11.73;7.30;;;-6.40;94.50;;;;;;5015246;28;20907;-76
2024/01/09 09:04:11;;;;;;;7.18;4.55;;;-6.40;94.40;;;;;;5037591;28;20249;-75
2024/01/09 09:06:40;;;;;;;9.90;6.10;;;-6.40;94.50;;;;;;5021543;28;20290;-78
2024/01/09 09:09:07;;;;;;;8.93;6.22;;;-6.40;94.50;;;;;;5017909;28;20212;-77
2024/01/09 09:11:34;;;;;;;7.13;4.78;;;-6.30;93.90;;;;;;5031455;28;20691;-77
2024/01/09 09:14:01;;;;;;;12.32;6.07;;;-6.20;93.40;;;;;;5008939;28;20206;-76
2024/01/09 09:16:29;;;;;;;11.80;4.95;;;-6.20;93.10;;;;;;5014175;28;20229;-77
2024/01/09 09:18:56;;;;;;;15.98;7.03;;;-6.30;93.10;;;;;;5004083;28;20215;-78
2024/01/09 09:21:22;;;;;;;12.48;6.15;;;-6.20;93.90;;;;;;5003664;28;20231;-76
2024/01/09 09:23:51;;;;;;;12.82;5.97;;;-6.10;93.70;;;;;;5003955;28;20212;-76
2024/01/09 09:26:18;;;;;;;13.73;7.28;;;-6.10;93.80;;;;;;5023262;28;20204;-76
2024/01/09 09:28:47;;;;;;;14.25;6.22;;;-5.90;94.00;;;;;;5007879;28;20207;-76
2024/01/09 09:31:15;;;;;;;13.43;7.95;;;-5.90;93.30;;;;;;5012218;28;20756;-77
2024/01/09 09:33:43;;;;;;;8.43;6.40;;;-5.90;92.60;;;;;;5011143;28;20510;-76
2024/01/09 09:36:12;;;;;;;10.30;6.00;;;-5.80;92.60;;;;;;5014335;28;20265;-77
2024/01/09 09:38:39;;;;;;;13.82;6.45;;;-5.70;92.90;;;;;;5005827;28;20636;-77
2024/01/09 09:41:08;;;;;;;9.43;5.80;;;-5.60;92.60;;;;;;5003256;28;20215;-76
2024/01/09 09:43:36;;;;;;;9.65;6.32;;;-5.70;92.60;;;;;;5002314;28;20273;-77
2024/01/09 09:46:03;;;;;;;9.23;5.50;;;-5.80;92.60;;;;;;5010034;28;20275;-76
2024/01/09 09:48:32;;;;;;;6.82;5.22;;;-5.80;93.40;;;;;;5014339;28;20294;-77
2024/01/09 09:51:01;;;;;;;6.75;4.63;;;-5.80;92.50;;;;;;5015664;28;20203;-78
2024/01/09 09:53:31;;;;;;;14.00;6.00;;;-5.90;92.00;;;;;;5003792;28;20838;-78
2024/01/09 09:55:58;;;;;;;11.20;7.45;;;-6.00;91.60;;;;;;5002091;28;20217;-77
2024/01/09 09:58:27;;;;;;;11.85;4.70;;;-5.90;92.90;;;;;;5024595;28;20248;-78
2024/01/09 10:00:58;;;;;;;21.15;11.98;;;-5.80;92.50;;;;;;5014530;28;20226;-78
2024/01/09 10:03:30;;;;;;;4.97;3.45;;;-5.90;92.20;;;;;;5012894;28;20307;-77
2024/01/09 10:05:57;;;;;;;9.40;7.00;;;-5.80;93.30;;;;;;5042129;28;20211;-77
2024/01/09 10:08:25;;;;;;;21.13;10.43;;;-5.80;93.20;;;;;;5019493;28;20256;-77
2024/01/09 10:10:53;;;;;;;18.98;10.57;;;-5.70;92.90;;;;;;5015920;28;20272;-77
2024/01/09 10:13:20;;;;;;;24.08;11.93;;;-5.60;93.20;;;;;;5026788;28;20553;-77
2024/01/09 10:15:58;;;;;;;18.60;9.32;;;-5.60;92.90;;;;;;5001889;28;20212;-77
2024/01/09 10:18:29;;;;;;;13.57;9.52;;;-5.50;93.70;;;;;;5023967;28;20227;-77
2024/01/09 10:20:57;;;;;;;19.13;11.30;;;-5.40;92.50;;;;;;5053032;28;20208;-76
2024/01/09 10:23:24;;;;;;;6.47;4.40;;;-5.60;91.80;;;;;;5023528;28;20208;-77
2024/01/09 10:25:51;;;;;;;12.57;7.65;;;-5.60;93.10;;;;;;5017108;28;20298;-77
2024/01/09 10:28:18;;;;;;;11.32;6.75;;;-5.40;93.00;;;;;;5011713;28;20288;-77
2024/01/09 10:30:46;;;;;;;17.50;8.93;;;-5.30;92.70;;;;;;5004080;28;20784;-79
2024/01/09 10:33:15;;;;;;;13.73;7.53;;;-5.20;93.10;;;;;;5016597;28;20311;-77
2024/01/09 10:35:43;;;;;;;15.35;8.82;;;-5.20;93.80;;;;;;5012064;28;20196;-78
2024/01/09 10:38:10;;;;;;;10.57;4.95;;;-5.10;92.30;;;;;;5010656;28;20644;-77
2024/01/09 10:40:38;;;;;;;10.95;5.90;;;-5.20;92.30;;;;;;5044620;28;20572;-77
2024/01/09 10:43:05;;;;;;;7.78;6.43;;;-5.30;92.30;;;;;;5007747;28;20277;-78
2024/01/09 10:45:32;;;;;;;12.50;7.85;;;-5.20;92.70;;;;;;5040379;28;20208;-78
2024/01/09 10:47:59;;;;;;;9.35;6.47;;;-5.20;92.50;;;;;;4999326;28;20201;-78
2024/01/09 10:50:28;;;;;;;10.82;6.95;;;-5.20;92.70;;;;;;5036646;28;20204;-78
2024/01/09 10:52:55;;;;;;;10.10;7.50;;;-5.10;92.90;;;;;;5020491;28;20620;-78
2024/01/09 10:55:24;;;;;;;18.33;8.38;;;-5.10;93.10;;;;;;5019060;28;20203;-78
2024/01/09 10:57:51;;;;;;;16.15;7.03;;;-5.10;93.20;;;;;;5023048;28;20775;-78
2024/01/09 11:00:20;;;;;;;8.25;6.28;;;-5.00;93.00;;;;;;5030495;28;20242;-78
2024/01/09 11:02:47;;;;;;;8.15;6.82;;;-5.00;93.50;;;;;;5021664;28;20216;-79
2024/01/09 11:05:14;;;;;;;12.27;5.90;;;-4.90;92.60;;;;;;5053562;28;20210;-78
2024/01/09 11:07:44;;;;;;;12.77;8.15;;;-5.00;93.10;;;;;;5009944;28;20235;-77
2024/01/09 11:10:17;;;;;;;22.15;9.05;;;-4.90;94.10;;;;;;5021732;28;20286;-78
2024/01/09 11:12:47;;;;;;;7.68;6.50;;;-4.90;93.90;;;;;;5015240;28;20456;-78
2024/01/09 11:15:19;;;;;;;13.82;7.70;;;-4.90;94.30;;;;;;5022193;28;20201;-77
2024/01/09 11:17:49;;;;;;;17.17;7.63;;;-4.90;94.60;;;;;;5000304;28;20247;-78
2024/01/09 11:20:17;;;;;;;22.20;9.68;;;-4.80;95.20;;;;;;5026589;28;20221;-78
2024/01/09 11:22:45;;;;;;;17.33;10.57;;;-4.70;94.80;;;;;;5002717;28;20204;-77
2024/01/09 11:25:16;;;;;;;12.82;9.48;;;-4.60;94.40;;;;;;5011171;28;20285;-80
2024/01/09 11:27:47;;;;;;;15.13;8.52;;;-4.70;94.20;;;;;;5002980;28;20290;-79
2024/01/09 11:30:17;;;;;;;26.27;12.63;;;-4.90;94.60;;;;;;5010639;28;20199;-77
2024/01/09 11:32:44;;;;;;;21.38;12.32;;;-4.90;95.60;;;;;;5015247;28;20244;-78
2024/01/09 11:35:13;;;;;;;18.40;10.48;;;-4.90;96.30;;;;;;5015449;28;20200;-77
2024/01/09 11:37:42;;;;;;;13.43;7.90;;;-4.80;96.50;;;;;;5050167;28;20280;-78
2024/01/09 11:40:12;;;;;;;16.08;9.20;;;-4.80;94.70;;;;;;5012133;28;20736;-77
2024/01/09 11:42:40;;;;;;;17.33;8.60;;;-4.80;94.70;;;;;;5000895;28;20272;-77
2024/01/09 11:45:09;;;;;;;13.02;7.75;;;-4.60;95.10;;;;;;5013352;28;20511;-78
2024/01/09 11:47:39;;;;;;;11.55;7.72;;;-4.70;94.50;;;;;;5007841;28;20200;-77
2024/01/09 11:50:07;;;;;;;9.45;6.22;;;-4.60;94.20;;;;;;5033983;28;20219;-78
2024/01/09 11:52:35;;;;;;;9.20;5.63;;;-4.50;94.70;;;;;;5020380;28;20939;-77
2024/01/09 11:55:03;;;;;;;10.20;7.05;;;-4.50;93.10;;;;;;5037899;28;20661;-77
2024/01/09 11:57:32;;;;;;;13.73;7.68;;;-4.60;92.90;;;;;;5052528;28;20923;-80
2024/01/09 12:00:01;;;;;;;10.32;5.97;;;-4.50;92.50;;;;;;5051146;28;20263;-77
2024/01/09 12:02:28;;;;;;;20.33;8.13;;;-4.60;91.70;;;;;;5026394;28;20215;-77
2024/01/09 12:04:55;;;;;;;13.88;7.85;;;-4.40;92.60;;;;;;5052976;28;20766;-78
2024/01/09 12:07:23;;;;;;;11.60;6.78;;;-4.30;92.70;;;;;;5025670;28;20602;-77
2024/01/09 12:09:50;;;;;;;10.18;5.80;;;-4.20;93.40;;;;;;5020506;28;20313;-78
2024/01/09 12:12:23;;;;;;;13.85;6.68;;;-4.10;93.00;;;;;;5008233;28;20224;-79
2024/01/09 12:14:55;;;;;;;16.50;10.02;;;-4.30;92.40;;;;;;5017620;28;20819;-78
2024/01/09 12:17:23;;;;;;;16.17;7.18;;;-4.10;93.90;;;;;;5034550;28;20307;-77
2024/01/09 12:19:53;;;;;;;14.18;9.10;;;-4.20;93.30;;;;;;5028280;28;20215;-79
2024/01/09 12:22:21;;;;;;;13.10;7.28;;;-4.20;94.20;;;;;;5036124;28;20264;-77
2024/01/09 12:24:50;;;;;;;15.52;7.72;;;-4.20;93.20;;;;;;5022377;28;20659;-77
2024/01/09 12:27:18;;;;;;;17.45;9.05;;;-4.30;93.20;;;;;;5012306;28;20299;-79
2024/01/09 12:29:45;;;;;;;12.82;7.18;;;-4.40;93.60;;;;;;5004254;28;20192;-77
2024/01/09 12:32:15;;;;;;;15.85;8.35;;;-4.20;93.20;;;;;;5015677;28;20298;-77
2024/01/09 12:34:43;;;;;;;11.95;7.45;;;-4.20;93.60;;;;;;5007230;28;20577;-76
2024/01/09 12:37:10;;;;;;;12.88;6.65;;;-4.30;93.00;;;;;;5015505;28;20208;-77
2024/01/09 12:39:37;;;;;;;14.65;8.85;;;-4.30;93.50;;;;;;5020465;28;20256;-77
2024/01/09 12:42:08;;;;;;;9.85;5.43;;;-4.10;93.60;;;;;;5025825;28;20280;-78